sensor_id;sensor_type;location;lat;lon;timestamp;P1;durP1;ratioP1;P2;durP2;ratioP2
44850;SDS011;30583;48.714;9.386;2023-04-06T00:01:31;15.40;;;10.27;;
44850;SDS011;30583;48.714;9.386;2023-04-06T00:03:56;15.95;;;10.20;;
44850;SDS011;30583;48.714;9.386;2023-04-06T00:06:22;18.63;;;10.52;;
44850;SDS011;30583;48.714;9.386;2023-04-06T00:08:48;14.23;;;10.27;;
44850;SDS011;30583;48.714;9.386;2023-04-06T00:11:13;12.63;;;9.38;;
44850;SDS011;30583;48.714;9.386;2023-04-06T00:13:39;14.80;;;9.60;;
44850;SDS011;30583;48.714;9.386;2023-04-06T00:16:05;13.75;;;9.48;;
44850;SDS011;30583;48.714;9.386;2023-04-06T00:18:31;13.90;;;9.90;;
44850;SDS011;30583;48.714;9.386;2023-04-06T00:20:57;13.77;;;9.57;;
44850;SDS011;30583;48.714;9.386;2023-04-06T00:23:22;13.88;;;10.18;;
44850;SDS011;30583;48.714;9.386;2023-04-06T00:25:48;15.15;;;9.95;;
44850;SDS011;30583;48.714;9.386;2023-04-06T00:28:13;17.67;;;10.85;;
44850;SDS011;30583;48.714;9.386;2023-04-06T00:30:40;15.85;;;10.27;;
44850;SDS011;30583;48.714;9.386;2023-04-06T00:33:06;14.43;;;9.70;;
44850;SDS011;30583;48.714;9.386;2023-04-06T00:35:31;13.93;;;9.05;;
44850;SDS011;30583;48.714;9.386;2023-04-06T00:37:57;14.68;;;10.45;;
44850;SDS011;30583;48.714;9.386;2023-04-06T00:40:23;13.32;;;8.68;;
44850;SDS011;30583;48.714;9.386;2023-04-06T00:42:49;11.20;;;8.18;;
44850;SDS011;30583;48.714;9.386;2023-04-06T00:45:15;11.02;;;7.45;;
44850;SDS011;30583;48.714;9.386;2023-04-06T00:47:40;11.63;;;7.53;;
44850;SDS011;30583;48.714;9.386;2023-04-06T00:50:06;9.55;;;6.88;;
44850;SDS011;30583;48.714;9.386;2023-04-06T00:52:33;9.70;;;7.50;;
44850;SDS011;30583;48.714;9.386;2023-04-06T00:55:00;11.07;;;7.65;;
44850;SDS011;30583;48.714;9.386;2023-04-06T00:57:26;9.07;;;7.15;;
44850;SDS011;30583;48.714;9.386;2023-04-06T00:59:52;10.48;;;8.13;;
44850;SDS011;30583;48.714;9.386;2023-04-06T01:02:18;11.10;;;7.45;;
44850;SDS011;30583;48.714;9.386;2023-04-06T01:04:44;11.18;;;7.90;;
44850;SDS011;30583;48.714;9.386;2023-04-06T01:07:10;10.50;;;7.63;;
44850;SDS011;30583;48.714;9.386;2023-04-06T01:09:35;12.80;;;7.90;;
44850;SDS011;30583;48.714;9.386;2023-04-06T01:12:01;12.50;;;8.00;;
44850;SDS011;30583;48.714;9.386;2023-04-06T01:14:27;15.70;;;8.73;;
44850;SDS011;30583;48.714;9.386;2023-04-06T01:16:53;13.27;;;7.65;;
44850;SDS011;30583;48.714;9.386;2023-04-06T01:19:19;11.50;;;7.57;;
44850;SDS011;30583;48.714;9.386;2023-04-06T01:21:45;8.90;;;7.25;;
44850;SDS011;30583;48.714;9.386;2023-04-06T01:24:11;10.57;;;7.78;;
44850;SDS011;30583;48.714;9.386;2023-04-06T01:26:37;12.80;;;7.38;;
44850;SDS011;30583;48.714;9.386;2023-04-06T01:29:03;11.63;;;7.97;;
44850;SDS011;30583;48.714;9.386;2023-04-06T01:31:29;11.10;;;7.78;;
44850;SDS011;30583;48.714;9.386;2023-04-06T01:33:55;10.68;;;7.72;;
44850;SDS011;30583;48.714;9.386;2023-04-06T01:36:21;11.55;;;8.13;;
44850;SDS011;30583;48.714;9.386;2023-04-06T01:38:47;12.15;;;8.32;;
44850;SDS011;30583;48.714;9.386;2023-04-06T01:41:13;11.10;;;7.53;;
44850;SDS011;30583;48.714;9.386;2023-04-06T01:43:38;12.13;;;9.07;;
44850;SDS011;30583;48.714;9.386;2023-04-06T01:46:04;12.82;;;8.32;;
44850;SDS011;30583;48.714;9.386;2023-04-06T01:48:30;13.95;;;8.73;;
44850;SDS011;30583;48.714;9.386;2023-04-06T01:50:56;13.40;;;8.60;;
44850;SDS011;30583;48.714;9.386;2023-04-06T01:53:21;13.52;;;8.60;;
44850;SDS011;30583;48.714;9.386;2023-04-06T01:55:47;15.85;;;9.20;;
44850;SDS011;30583;48.714;9.386;2023-04-06T01:58:13;11.75;;;8.25;;
44850;SDS011;30583;48.714;9.386;2023-04-06T02:00:38;12.02;;;7.93;;
44850;SDS011;30583;48.714;9.386;2023-04-06T02:03:04;16.00;;;9.85;;
44850;SDS011;30583;48.714;9.386;2023-04-06T02:05:31;12.15;;;9.10;;
44850;SDS011;30583;48.714;9.386;2023-04-06T02:08:02;14.02;;;9.90;;
44850;SDS011;30583;48.714;9.386;2023-04-06T02:10:31;13.85;;;10.13;;
44850;SDS011;30583;48.714;9.386;2023-04-06T02:12:57;13.98;;;8.70;;
44850;SDS011;30583;48.714;9.386;2023-04-06T02:15:23;11.57;;;8.25;;
44850;SDS011;30583;48.714;9.386;2023-04-06T02:17:49;12.85;;;9.30;;
44850;SDS011;30583;48.714;9.386;2023-04-06T02:20:15;11.60;;;8.15;;
44850;SDS011;30583;48.714;9.386;2023-04-06T02:22:40;13.05;;;9.13;;
44850;SDS011;30583;48.714;9.386;2023-04-06T02:25:06;19.33;;;11.95;;
44850;SDS011;30583;48.714;9.386;2023-04-06T02:27:32;33.42;;;17.05;;
44850;SDS011;30583;48.714;9.386;2023-04-06T02:29:58;47.22;;;20.85;;
44850;SDS011;30583;48.714;9.386;2023-04-06T02:32:24;28.02;;;14.63;;
44850;SDS011;30583;48.714;9.386;2023-04-06T02:34:49;21.90;;;12.15;;
44850;SDS011;30583;48.714;9.386;2023-04-06T02:37:15;15.50;;;10.48;;
44850;SDS011;30583;48.714;9.386;2023-04-06T02:39:41;17.02;;;10.32;;
44850;SDS011;30583;48.714;9.386;2023-04-06T02:42:06;14.85;;;10.50;;
44850;SDS011;30583;48.714;9.386;2023-04-06T02:44:33;15.75;;;11.90;;
44850;SDS011;30583;48.714;9.386;2023-04-06T02:46:59;20.13;;;12.45;;
44850;SDS011;30583;48.714;9.386;2023-04-06T02:49:24;28.98;;;18.20;;
44850;SDS011;30583;48.714;9.386;2023-04-06T02:51:50;36.60;;;23.77;;
44850;SDS011;30583;48.714;9.386;2023-04-06T02:54:16;32.38;;;20.08;;
44850;SDS011;30583;48.714;9.386;2023-04-06T02:56:41;31.25;;;20.20;;
44850;SDS011;30583;48.714;9.386;2023-04-06T02:59:07;40.20;;;27.17;;
44850;SDS011;30583;48.714;9.386;2023-04-06T03:01:33;28.02;;;17.52;;
44850;SDS011;30583;48.714;9.386;2023-04-06T03:03:59;18.95;;;13.52;;
44850;SDS011;30583;48.714;9.386;2023-04-06T03:06:24;15.82;;;10.25;;
44850;SDS011;30583;48.714;9.386;2023-04-06T03:08:50;14.48;;;11.05;;
44850;SDS011;30583;48.714;9.386;2023-04-06T03:11:15;16.55;;;11.35;;
44850;SDS011;30583;48.714;9.386;2023-04-06T03:13:41;15.65;;;10.70;;
44850;SDS011;30583;48.714;9.386;2023-04-06T03:16:07;16.38;;;11.27;;
44850;SDS011;30583;48.714;9.386;2023-04-06T03:18:32;17.13;;;11.75;;
44850;SDS011;30583;48.714;9.386;2023-04-06T03:20:58;14.82;;;10.23;;
44850;SDS011;30583;48.714;9.386;2023-04-06T03:23:25;13.95;;;10.27;;
44850;SDS011;30583;48.714;9.386;2023-04-06T03:25:50;16.05;;;10.25;;
44850;SDS011;30583;48.714;9.386;2023-04-06T03:28:16;14.65;;;9.75;;
44850;SDS011;30583;48.714;9.386;2023-04-06T03:30:42;15.90;;;10.25;;
44850;SDS011;30583;48.714;9.386;2023-04-06T03:33:07;18.27;;;11.70;;
44850;SDS011;30583;48.714;9.386;2023-04-06T03:35:33;16.50;;;11.40;;
44850;SDS011;30583;48.714;9.386;2023-04-06T03:37:59;17.42;;;11.60;;
44850;SDS011;30583;48.714;9.386;2023-04-06T03:40:25;14.38;;;10.70;;
44850;SDS011;30583;48.714;9.386;2023-04-06T03:42:50;13.63;;;9.50;;
44850;SDS011;30583;48.714;9.386;2023-04-06T03:45:16;13.77;;;10.25;;
44850;SDS011;30583;48.714;9.386;2023-04-06T03:47:42;14.52;;;10.32;;
44850;SDS011;30583;48.714;9.386;2023-04-06T03:50:08;17.80;;;10.55;;
44850;SDS011;30583;48.714;9.386;2023-04-06T03:52:34;18.17;;;11.18;;
44850;SDS011;30583;48.714;9.386;2023-04-06T03:55:01;19.58;;;12.32;;
44850;SDS011;30583;48.714;9.386;2023-04-06T03:57:26;16.30;;;11.55;;
44850;SDS011;30583;48.714;9.386;2023-04-06T03:59:52;15.95;;;11.68;;
44850;SDS011;30583;48.714;9.386;2023-04-06T04:02:18;15.98;;;10.68;;
44850;SDS011;30583;48.714;9.386;2023-04-06T04:04:43;18.25;;;10.77;;
44850;SDS011;30583;48.714;9.386;2023-04-06T04:07:09;17.45;;;11.02;;
44850;SDS011;30583;48.714;9.386;2023-04-06T04:09:36;16.77;;;10.80;;
44850;SDS011;30583;48.714;9.386;2023-04-06T04:12:02;18.58;;;12.02;;
44850;SDS011;30583;48.714;9.386;2023-04-06T04:14:28;18.83;;;12.27;;
44850;SDS011;30583;48.714;9.386;2023-04-06T04:16:53;20.48;;;12.45;;
44850;SDS011;30583;48.714;9.386;2023-04-06T04:19:19;17.55;;;11.98;;
44850;SDS011;30583;48.714;9.386;2023-04-06T04:21:45;16.83;;;11.95;;
44850;SDS011;30583;48.714;9.386;2023-04-06T04:24:11;22.70;;;14.85;;
44850;SDS011;30583;48.714;9.386;2023-04-06T04:26:38;77.22;;;34.72;;
44850;SDS011;30583;48.714;9.386;2023-04-06T04:29:04;46.30;;;22.08;;
44850;SDS011;30583;48.714;9.386;2023-04-06T04:31:30;101.45;;;37.70;;
44850;SDS011;30583;48.714;9.386;2023-04-06T04:33:57;168.52;;;55.33;;
44850;SDS011;30583;48.714;9.386;2023-04-06T04:36:23;139.55;;;50.05;;
44850;SDS011;30583;48.714;9.386;2023-04-06T04:38:50;149.23;;;53.30;;
44850;SDS011;30583;48.714;9.386;2023-04-06T04:41:16;30.02;;;15.95;;
44850;SDS011;30583;48.714;9.386;2023-04-06T04:43:42;17.20;;;11.60;;
44850;SDS011;30583;48.714;9.386;2023-04-06T04:46:07;35.22;;;18.85;;
44850;SDS011;30583;48.714;9.386;2023-04-06T04:48:33;20.63;;;12.82;;
44850;SDS011;30583;48.714;9.386;2023-04-06T04:50:59;47.97;;;25.25;;
44850;SDS011;30583;48.714;9.386;2023-04-06T04:53:25;65.25;;;36.85;;
44850;SDS011;30583;48.714;9.386;2023-04-06T04:55:50;58.20;;;33.55;;
44850;SDS011;30583;48.714;9.386;2023-04-06T04:58:16;24.52;;;15.90;;
44850;SDS011;30583;48.714;9.386;2023-04-06T05:00:43;29.08;;;17.50;;
44850;SDS011;30583;48.714;9.386;2023-04-06T05:03:09;30.88;;;20.00;;
44850;SDS011;30583;48.714;9.386;2023-04-06T05:05:43;23.75;;;16.63;;
44850;SDS011;30583;48.714;9.386;2023-04-06T05:08:08;22.58;;;17.20;;
44850;SDS011;30583;48.714;9.386;2023-04-06T05:10:34;18.20;;;13.43;;
44850;SDS011;30583;48.714;9.386;2023-04-06T05:13:00;20.98;;;15.45;;
44850;SDS011;30583;48.714;9.386;2023-04-06T05:15:26;20.35;;;14.35;;
44850;SDS011;30583;48.714;9.386;2023-04-06T05:17:51;22.92;;;15.68;;
44850;SDS011;30583;48.714;9.386;2023-04-06T05:20:17;21.88;;;14.93;;
44850;SDS011;30583;48.714;9.386;2023-04-06T05:22:43;17.08;;;12.15;;
44850;SDS011;30583;48.714;9.386;2023-04-06T05:25:08;17.35;;;12.60;;
44850;SDS011;30583;48.714;9.386;2023-04-06T05:27:34;18.42;;;11.85;;
44850;SDS011;30583;48.714;9.386;2023-04-06T05:30:00;21.60;;;14.02;;
44850;SDS011;30583;48.714;9.386;2023-04-06T05:32:26;32.83;;;15.75;;
44850;SDS011;30583;48.714;9.386;2023-04-06T05:34:52;231.07;;;68.20;;
44850;SDS011;30583;48.714;9.386;2023-04-06T05:37:18;349.58;;;104.25;;
44850;SDS011;30583;48.714;9.386;2023-04-06T05:39:44;419.30;;;120.82;;
44850;SDS011;30583;48.714;9.386;2023-04-06T05:42:11;522.95;;;150.25;;
44850;SDS011;30583;48.714;9.386;2023-04-06T05:44:37;171.55;;;52.90;;
44850;SDS011;30583;48.714;9.386;2023-04-06T05:47:03;100.40;;;32.53;;
44850;SDS011;30583;48.714;9.386;2023-04-06T05:49:28;223.07;;;63.83;;
44850;SDS011;30583;48.714;9.386;2023-04-06T05:51:54;81.80;;;29.67;;
44850;SDS011;30583;48.714;9.386;2023-04-06T05:54:20;37.40;;;18.27;;
44850;SDS011;30583;48.714;9.386;2023-04-06T05:56:45;63.97;;;25.65;;
44850;SDS011;30583;48.714;9.386;2023-04-06T05:59:11;266.02;;;87.25;;
44850;SDS011;30583;48.714;9.386;2023-04-06T06:01:37;158.00;;;57.72;;
44850;SDS011;30583;48.714;9.386;2023-04-06T06:04:02;567.78;;;201.70;;
44850;SDS011;30583;48.714;9.386;2023-04-06T06:06:28;168.32;;;59.33;;
44850;SDS011;30583;48.714;9.386;2023-04-06T06:08:57;103.30;;;39.20;;
44850;SDS011;30583;48.714;9.386;2023-04-06T06:11:25;163.30;;;56.00;;
44850;SDS011;30583;48.714;9.386;2023-04-06T06:13:51;74.00;;;31.38;;
44850;SDS011;30583;48.714;9.386;2023-04-06T06:16:17;52.75;;;21.48;;
44850;SDS011;30583;48.714;9.386;2023-04-06T06:18:43;36.08;;;19.15;;
44850;SDS011;30583;48.714;9.386;2023-04-06T06:21:09;48.03;;;25.20;;
44850;SDS011;30583;48.714;9.386;2023-04-06T06:23:37;36.15;;;19.00;;
44850;SDS011;30583;48.714;9.386;2023-04-06T06:26:03;20.98;;;13.68;;
44850;SDS011;30583;48.714;9.386;2023-04-06T06:28:29;37.20;;;18.33;;
44850;SDS011;30583;48.714;9.386;2023-04-06T06:30:55;35.80;;;19.95;;
44850;SDS011;30583;48.714;9.386;2023-04-06T06:33:21;23.17;;;15.75;;
44850;SDS011;30583;48.714;9.386;2023-04-06T06:35:46;24.77;;;14.27;;
44850;SDS011;30583;48.714;9.386;2023-04-06T06:38:12;19.70;;;13.25;;
44850;SDS011;30583;48.714;9.386;2023-04-06T06:40:37;18.55;;;13.15;;
44850;SDS011;30583;48.714;9.386;2023-04-06T06:43:05;17.67;;;11.75;;
44850;SDS011;30583;48.714;9.386;2023-04-06T06:45:31;21.45;;;11.95;;
44850;SDS011;30583;48.714;9.386;2023-04-06T06:47:57;21.08;;;12.27;;
44850;SDS011;30583;48.714;9.386;2023-04-06T06:50:23;14.07;;;11.13;;
44850;SDS011;30583;48.714;9.386;2023-04-06T06:52:49;15.02;;;11.82;;
44850;SDS011;30583;48.714;9.386;2023-04-06T06:55:14;16.17;;;11.10;;
44850;SDS011;30583;48.714;9.386;2023-04-06T06:57:40;17.40;;;11.95;;
44850;SDS011;30583;48.714;9.386;2023-04-06T07:00:07;19.30;;;12.45;;
44850;SDS011;30583;48.714;9.386;2023-04-06T07:02:34;16.50;;;11.52;;
44850;SDS011;30583;48.714;9.386;2023-04-06T07:05:00;14.75;;;9.68;;
44850;SDS011;30583;48.714;9.386;2023-04-06T07:07:26;18.23;;;11.10;;
44850;SDS011;30583;48.714;9.386;2023-04-06T07:09:52;17.27;;;11.20;;
44850;SDS011;30583;48.714;9.386;2023-04-06T07:12:18;16.10;;;11.05;;
44850;SDS011;30583;48.714;9.386;2023-04-06T07:14:43;20.30;;;11.05;;
44850;SDS011;30583;48.714;9.386;2023-04-06T07:17:09;22.67;;;11.45;;
44850;SDS011;30583;48.714;9.386;2023-04-06T07:19:35;17.27;;;11.45;;
44850;SDS011;30583;48.714;9.386;2023-04-06T07:22:00;15.75;;;11.30;;
44850;SDS011;30583;48.714;9.386;2023-04-06T07:24:27;18.00;;;11.68;;
44850;SDS011;30583;48.714;9.386;2023-04-06T07:26:53;21.80;;;11.75;;
44850;SDS011;30583;48.714;9.386;2023-04-06T07:29:18;16.13;;;11.18;;
44850;SDS011;30583;48.714;9.386;2023-04-06T07:31:44;18.50;;;12.45;;
44850;SDS011;30583;48.714;9.386;2023-04-06T07:34:10;20.02;;;11.95;;
44850;SDS011;30583;48.714;9.386;2023-04-06T07:36:35;16.75;;;11.25;;
44850;SDS011;30583;48.714;9.386;2023-04-06T07:39:01;19.80;;;11.68;;
44850;SDS011;30583;48.714;9.386;2023-04-06T07:41:27;17.75;;;11.85;;
44850;SDS011;30583;48.714;9.386;2023-04-06T07:43:52;17.25;;;10.95;;
44850;SDS011;30583;48.714;9.386;2023-04-06T07:46:18;18.85;;;11.52;;
44850;SDS011;30583;48.714;9.386;2023-04-06T07:48:43;18.88;;;11.32;;
44850;SDS011;30583;48.714;9.386;2023-04-06T07:51:09;17.17;;;11.65;;
44850;SDS011;30583;48.714;9.386;2023-04-06T07:53:39;19.23;;;11.57;;
44850;SDS011;30583;48.714;9.386;2023-04-06T07:56:04;16.42;;;11.90;;
44850;SDS011;30583;48.714;9.386;2023-04-06T07:58:30;16.50;;;11.07;;
44850;SDS011;30583;48.714;9.386;2023-04-06T08:00:56;20.83;;;12.23;;
44850;SDS011;30583;48.714;9.386;2023-04-06T08:03:22;18.70;;;12.48;;
44850;SDS011;30583;48.714;9.386;2023-04-06T08:05:50;20.17;;;12.68;;
44850;SDS011;30583;48.714;9.386;2023-04-06T08:08:17;17.70;;;12.98;;
44850;SDS011;30583;48.714;9.386;2023-04-06T08:10:43;20.75;;;12.38;;
44850;SDS011;30583;48.714;9.386;2023-04-06T08:13:09;19.17;;;12.68;;
44850;SDS011;30583;48.714;9.386;2023-04-06T08:15:35;16.92;;;11.68;;
44850;SDS011;30583;48.714;9.386;2023-04-06T08:18:00;21.05;;;12.82;;
44850;SDS011;30583;48.714;9.386;2023-04-06T08:20:26;20.13;;;12.77;;
44850;SDS011;30583;48.714;9.386;2023-04-06T08:22:51;21.38;;;13.90;;
44850;SDS011;30583;48.714;9.386;2023-04-06T08:25:17;19.17;;;13.05;;
44850;SDS011;30583;48.714;9.386;2023-04-06T08:27:43;20.88;;;13.07;;
44850;SDS011;30583;48.714;9.386;2023-04-06T08:30:08;21.23;;;12.68;;
44850;SDS011;30583;48.714;9.386;2023-04-06T08:32:34;20.15;;;12.13;;
44850;SDS011;30583;48.714;9.386;2023-04-06T08:35:00;20.67;;;11.57;;
44850;SDS011;30583;48.714;9.386;2023-04-06T08:37:26;18.25;;;11.90;;
44850;SDS011;30583;48.714;9.386;2023-04-06T08:39:52;18.35;;;11.90;;
44850;SDS011;30583;48.714;9.386;2023-04-06T08:42:21;20.27;;;12.35;;
44850;SDS011;30583;48.714;9.386;2023-04-06T08:44:48;19.85;;;12.27;;
44850;SDS011;30583;48.714;9.386;2023-04-06T08:47:16;17.98;;;12.02;;
44850;SDS011;30583;48.714;9.386;2023-04-06T08:49:41;18.83;;;11.65;;
44850;SDS011;30583;48.714;9.386;2023-04-06T08:52:09;17.98;;;12.00;;
44850;SDS011;30583;48.714;9.386;2023-04-06T08:54:36;16.75;;;11.80;;
44850;SDS011;30583;48.714;9.386;2023-04-06T08:57:02;17.65;;;11.20;;
44850;SDS011;30583;48.714;9.386;2023-04-06T08:59:29;17.30;;;11.70;;
44850;SDS011;30583;48.714;9.386;2023-04-06T09:01:56;18.60;;;12.48;;
44850;SDS011;30583;48.714;9.386;2023-04-06T09:04:22;16.85;;;11.95;;
44850;SDS011;30583;48.714;9.386;2023-04-06T09:06:48;18.52;;;11.75;;
44850;SDS011;30583;48.714;9.386;2023-04-06T09:09:14;18.33;;;11.75;;
44850;SDS011;30583;48.714;9.386;2023-04-06T09:11:44;17.00;;;11.75;;
44850;SDS011;30583;48.714;9.386;2023-04-06T09:14:11;16.02;;;11.50;;
44850;SDS011;30583;48.714;9.386;2023-04-06T09:16:44;22.25;;;11.55;;
44850;SDS011;30583;48.714;9.386;2023-04-06T09:19:11;17.98;;;11.55;;
44850;SDS011;30583;48.714;9.386;2023-04-06T09:21:37;16.42;;;11.02;;
44850;SDS011;30583;48.714;9.386;2023-04-06T09:24:05;16.75;;;10.35;;
44850;SDS011;30583;48.714;9.386;2023-04-06T09:26:32;19.23;;;10.95;;
44850;SDS011;30583;48.714;9.386;2023-04-06T09:29:08;18.98;;;10.98;;
44850;SDS011;30583;48.714;9.386;2023-04-06T09:31:34;18.08;;;11.05;;
44850;SDS011;30583;48.714;9.386;2023-04-06T09:34:00;14.35;;;9.93;;
44850;SDS011;30583;48.714;9.386;2023-04-06T09:36:33;15.45;;;9.55;;
44850;SDS011;30583;48.714;9.386;2023-04-06T09:39:01;17.23;;;11.00;;
44850;SDS011;30583;48.714;9.386;2023-04-06T09:41:28;14.07;;;9.30;;
44850;SDS011;30583;48.714;9.386;2023-04-06T09:46:35;15.65;;;10.07;;
44850;SDS011;30583;48.714;9.386;2023-04-06T09:49:05;14.17;;;9.40;;
44850;SDS011;30583;48.714;9.386;2023-04-06T09:51:36;15.02;;;10.38;;
44850;SDS011;30583;48.714;9.386;2023-04-06T09:54:03;18.88;;;10.75;;
44850;SDS011;30583;48.714;9.386;2023-04-06T09:59:05;14.10;;;10.25;;
44850;SDS011;30583;48.714;9.386;2023-04-06T10:01:36;15.75;;;10.18;;
44850;SDS011;30583;48.714;9.386;2023-04-06T10:06:50;16.08;;;10.68;;
44850;SDS011;30583;48.714;9.386;2023-04-06T10:09:17;13.43;;;9.70;;
44850;SDS011;30583;48.714;9.386;2023-04-06T10:11:46;12.45;;;8.63;;
44850;SDS011;30583;48.714;9.386;2023-04-06T10:14:13;12.73;;;7.72;;
44850;SDS011;30583;48.714;9.386;2023-04-06T10:16:40;11.25;;;7.43;;
44850;SDS011;30583;48.714;9.386;2023-04-06T10:19:09;12.65;;;8.40;;
44850;SDS011;30583;48.714;9.386;2023-04-06T10:21:38;11.82;;;7.90;;
44850;SDS011;30583;48.714;9.386;2023-04-06T10:24:08;13.52;;;8.48;;
44850;SDS011;30583;48.714;9.386;2023-04-06T10:26:38;10.27;;;7.38;;
44850;SDS011;30583;48.714;9.386;2023-04-06T10:29:05;11.05;;;7.70;;
44850;SDS011;30583;48.714;9.386;2023-04-06T10:31:31;13.38;;;8.55;;
44850;SDS011;30583;48.714;9.386;2023-04-06T10:33:57;10.10;;;7.80;;
44850;SDS011;30583;48.714;9.386;2023-04-06T10:36:33;9.05;;;6.82;;
44850;SDS011;30583;48.714;9.386;2023-04-06T10:39:03;11.50;;;7.05;;
44850;SDS011;30583;48.714;9.386;2023-04-06T10:41:34;11.18;;;7.78;;
44850;SDS011;30583;48.714;9.386;2023-04-06T10:44:07;9.63;;;7.32;;
44850;SDS011;30583;48.714;9.386;2023-04-06T10:46:41;11.13;;;8.00;;
44850;SDS011;30583;48.714;9.386;2023-04-06T10:49:21;9.68;;;7.22;;
44850;SDS011;30583;48.714;9.386;2023-04-06T10:51:51;11.82;;;7.75;;
44850;SDS011;30583;48.714;9.386;2023-04-06T10:54:18;12.13;;;7.85;;
44850;SDS011;30583;48.714;9.386;2023-04-06T10:56:46;9.50;;;6.65;;
44850;SDS011;30583;48.714;9.386;2023-04-06T10:59:12;11.27;;;6.93;;
44850;SDS011;30583;48.714;9.386;2023-04-06T11:01:37;10.02;;;6.20;;
44850;SDS011;30583;48.714;9.386;2023-04-06T11:04:03;10.65;;;7.13;;
44850;SDS011;30583;48.714;9.386;2023-04-06T11:06:29;9.77;;;7.22;;
44850;SDS011;30583;48.714;9.386;2023-04-06T11:08:56;10.00;;;7.10;;
44850;SDS011;30583;48.714;9.386;2023-04-06T11:11:23;10.40;;;7.22;;
44850;SDS011;30583;48.714;9.386;2023-04-06T11:13:52;10.70;;;7.07;;
44850;SDS011;30583;48.714;9.386;2023-04-06T11:16:25;10.07;;;7.63;;
44850;SDS011;30583;48.714;9.386;2023-04-06T11:18:53;10.98;;;6.63;;
44850;SDS011;30583;48.714;9.386;2023-04-06T11:21:33;10.00;;;7.10;;
44850;SDS011;30583;48.714;9.386;2023-04-06T11:24:16;9.07;;;5.63;;
44850;SDS011;30583;48.714;9.386;2023-04-06T11:26:43;10.98;;;5.65;;
44850;SDS011;30583;48.714;9.386;2023-04-06T11:29:17;8.70;;;6.20;;
44850;SDS011;30583;48.714;9.386;2023-04-06T11:31:50;10.88;;;6.60;;
44850;SDS011;30583;48.714;9.386;2023-04-06T11:34:17;9.98;;;6.35;;
44850;SDS011;30583;48.714;9.386;2023-04-06T11:36:44;10.13;;;6.32;;
44850;SDS011;30583;48.714;9.386;2023-04-06T11:39:12;12.38;;;6.47;;
44850;SDS011;30583;48.714;9.386;2023-04-06T11:41:48;9.18;;;5.28;;
44850;SDS011;30583;48.714;9.386;2023-04-06T11:44:14;12.25;;;6.43;;
44850;SDS011;30583;48.714;9.386;2023-04-06T11:46:40;10.82;;;5.78;;
44850;SDS011;30583;48.714;9.386;2023-04-06T11:49:15;10.77;;;7.20;;
44850;SDS011;30583;48.714;9.386;2023-04-06T11:51:41;13.05;;;6.25;;
44850;SDS011;30583;48.714;9.386;2023-04-06T11:54:07;14.00;;;6.32;;
44850;SDS011;30583;48.714;9.386;2023-04-06T11:56:33;10.60;;;6.30;;
44850;SDS011;30583;48.714;9.386;2023-04-06T11:58:58;8.10;;;4.82;;
44850;SDS011;30583;48.714;9.386;2023-04-06T12:01:26;11.85;;;5.88;;
44850;SDS011;30583;48.714;9.386;2023-04-06T12:03:52;12.00;;;6.45;;
44850;SDS011;30583;48.714;9.386;2023-04-06T12:06:18;10.10;;;5.95;;
44850;SDS011;30583;48.714;9.386;2023-04-06T12:08:44;8.52;;;5.75;;
44850;SDS011;30583;48.714;9.386;2023-04-06T12:11:10;9.30;;;5.90;;
44850;SDS011;30583;48.714;9.386;2023-04-06T12:13:36;10.88;;;7.05;;
44850;SDS011;30583;48.714;9.386;2023-04-06T12:16:02;13.57;;;8.30;;
44850;SDS011;30583;48.714;9.386;2023-04-06T12:18:29;9.25;;;6.55;;
44850;SDS011;30583;48.714;9.386;2023-04-06T12:20:55;8.07;;;6.03;;
44850;SDS011;30583;48.714;9.386;2023-04-06T12:23:20;11.05;;;5.50;;
44850;SDS011;30583;48.714;9.386;2023-04-06T12:25:46;11.63;;;6.38;;
44850;SDS011;30583;48.714;9.386;2023-04-06T12:28:12;10.02;;;7.22;;
44850;SDS011;30583;48.714;9.386;2023-04-06T12:30:38;10.25;;;5.93;;
44850;SDS011;30583;48.714;9.386;2023-04-06T12:33:05;8.05;;;5.70;;
44850;SDS011;30583;48.714;9.386;2023-04-06T12:35:34;10.82;;;5.60;;
44850;SDS011;30583;48.714;9.386;2023-04-06T12:38:02;9.85;;;5.70;;
44850;SDS011;30583;48.714;9.386;2023-04-06T12:40:27;14.73;;;8.85;;
44850;SDS011;30583;48.714;9.386;2023-04-06T12:42:53;9.00;;;5.80;;
44850;SDS011;30583;48.714;9.386;2023-04-06T12:45:19;10.48;;;5.97;;
44850;SDS011;30583;48.714;9.386;2023-04-06T12:47:44;11.75;;;6.50;;
44850;SDS011;30583;48.714;9.386;2023-04-06T12:50:10;10.00;;;6.28;;
44850;SDS011;30583;48.714;9.386;2023-04-06T12:52:35;11.02;;;6.35;;
44850;SDS011;30583;48.714;9.386;2023-04-06T12:55:02;12.32;;;6.18;;
44850;SDS011;30583;48.714;9.386;2023-04-06T12:57:28;8.68;;;5.85;;
44850;SDS011;30583;48.714;9.386;2023-04-06T12:59:54;9.77;;;5.70;;
44850;SDS011;30583;48.714;9.386;2023-04-06T13:02:20;9.48;;;6.00;;
44850;SDS011;30583;48.714;9.386;2023-04-06T13:04:46;13.07;;;8.70;;
44850;SDS011;30583;48.714;9.386;2023-04-06T13:07:13;10.30;;;5.90;;
44850;SDS011;30583;48.714;9.386;2023-04-06T13:09:39;13.35;;;6.75;;
44850;SDS011;30583;48.714;9.386;2023-04-06T13:12:04;12.30;;;7.30;;
44850;SDS011;30583;48.714;9.386;2023-04-06T13:14:30;34.22;;;21.70;;
44850;SDS011;30583;48.714;9.386;2023-04-06T13:16:56;10.57;;;6.97;;
44850;SDS011;30583;48.714;9.386;2023-04-06T13:19:22;10.20;;;6.55;;
44850;SDS011;30583;48.714;9.386;2023-04-06T13:21:48;9.57;;;6.10;;
44850;SDS011;30583;48.714;9.386;2023-04-06T13:24:14;10.25;;;5.93;;
44850;SDS011;30583;48.714;9.386;2023-04-06T13:26:40;9.13;;;5.93;;
44850;SDS011;30583;48.714;9.386;2023-04-06T13:29:05;9.73;;;5.88;;
44850;SDS011;30583;48.714;9.386;2023-04-06T13:31:31;9.18;;;5.78;;
44850;SDS011;30583;48.714;9.386;2023-04-06T13:33:57;9.57;;;5.97;;
44850;SDS011;30583;48.714;9.386;2023-04-06T13:36:23;9.60;;;5.90;;
44850;SDS011;30583;48.714;9.386;2023-04-06T13:38:51;9.70;;;6.07;;
44850;SDS011;30583;48.714;9.386;2023-04-06T13:41:20;10.65;;;5.47;;
44850;SDS011;30583;48.714;9.386;2023-04-06T13:43:47;7.80;;;5.20;;
44850;SDS011;30583;48.714;9.386;2023-04-06T13:46:13;11.70;;;6.15;;
44850;SDS011;30583;48.714;9.386;2023-04-06T13:48:38;8.63;;;5.85;;
44850;SDS011;30583;48.714;9.386;2023-04-06T13:51:08;8.52;;;5.20;;
44850;SDS011;30583;48.714;9.386;2023-04-06T13:53:37;11.45;;;6.05;;
44850;SDS011;30583;48.714;9.386;2023-04-06T13:56:03;10.23;;;5.40;;
44850;SDS011;30583;48.714;9.386;2023-04-06T13:58:29;9.00;;;5.22;;
44850;SDS011;30583;48.714;9.386;2023-04-06T14:00:55;7.82;;;4.68;;
44850;SDS011;30583;48.714;9.386;2023-04-06T14:03:35;10.13;;;5.53;;
44850;SDS011;30583;48.714;9.386;2023-04-06T14:06:09;9.55;;;6.05;;
44850;SDS011;30583;48.714;9.386;2023-04-06T14:08:38;8.90;;;5.72;;
44850;SDS011;30583;48.714;9.386;2023-04-06T14:11:03;9.48;;;5.45;;
44850;SDS011;30583;48.714;9.386;2023-04-06T14:13:29;9.88;;;5.30;;
44850;SDS011;30583;48.714;9.386;2023-04-06T14:15:55;6.35;;;4.47;;
44850;SDS011;30583;48.714;9.386;2023-04-06T14:18:22;8.98;;;4.72;;
44850;SDS011;30583;48.714;9.386;2023-04-06T14:20:54;8.48;;;4.72;;
44850;SDS011;30583;48.714;9.386;2023-04-06T14:23:20;7.05;;;4.63;;
44850;SDS011;30583;48.714;9.386;2023-04-06T14:25:46;7.57;;;4.50;;
44850;SDS011;30583;48.714;9.386;2023-04-06T14:28:12;7.10;;;4.47;;
44850;SDS011;30583;48.714;9.386;2023-04-06T14:30:38;7.05;;;4.60;;
44850;SDS011;30583;48.714;9.386;2023-04-06T14:33:03;7.50;;;4.60;;